createdAt,value
2018-10-09T00:00:45.060Z,23.67
2018-10-09T00:03:14.167Z,24.77
2018-10-09T00:05:43.263Z,26.90
2018-10-09T00:08:12.370Z,25.27
2018-10-09T00:10:41.546Z,25.37
2018-10-09T00:13:10.710Z,26.63
2018-10-09T00:15:39.845Z,25.43
2018-10-09T00:18:08.931Z,26.80
2018-10-09T00:20:38.061Z,26.73
2018-10-09T00:23:07.606Z,27.07
2018-10-09T00:25:36.725Z,26.17
2018-10-09T00:28:05.861Z,26.77
2018-10-09T00:30:34.922Z,27.03
2018-10-09T00:33:04.081Z,25.47
2018-10-09T00:35:33.204Z,26.30
2018-10-09T00:38:02.294Z,25.77
2018-10-09T00:40:31.362Z,25.27
2018-10-09T00:43:00.494Z,24.83
2018-10-09T00:45:29.641Z,24.53
2018-10-09T00:47:58.753Z,25.27
2018-10-09T00:50:27.759Z,24.87
2018-10-09T00:52:56.915Z,23.90
2018-10-09T00:55:26.085Z,23.70
2018-10-09T00:57:55.167Z,23.37
2018-10-09T01:00:24.259Z,27.27
2018-10-09T01:02:53.409Z,25.63
2018-10-09T01:05:22.589Z,26.23
2018-10-09T01:07:51.728Z,26.57
2018-10-09T01:10:20.906Z,28.13
2018-10-09T01:12:50.002Z,26.47
2018-10-09T01:15:19.161Z,27.83
2018-10-09T01:17:48.209Z,27.43
2018-10-09T01:20:21.360Z,28.10
2018-10-09T01:22:50.409Z,28.30
2018-10-09T01:25:19.534Z,27.30
2018-10-09T01:27:48.655Z,27.10
2018-10-09T01:30:17.728Z,26.03
2018-10-09T01:32:46.786Z,26.33
2018-10-09T01:35:15.899Z,26.03
2018-10-09T01:37:44.967Z,26.40
2018-10-09T01:40:14.086Z,25.60
2018-10-09T01:42:43.142Z,24.07
2018-10-09T01:45:12.185Z,24.80
2018-10-09T01:47:41.274Z,24.77
2018-10-09T01:50:10.462Z,23.23
2018-10-09T01:52:39.542Z,23.63
2018-10-09T01:55:08.966Z,23.33
2018-10-09T01:57:38.097Z,22.97
2018-10-09T02:00:08.831Z,23.67
2018-10-09T02:02:38.030Z,22.67
2018-10-09T02:05:07.322Z,24.57
2018-10-09T02:07:36.425Z,24.20
2018-10-09T02:10:05.755Z,22.10
2018-10-09T02:12:34.855Z,22.43
2018-10-09T02:15:04.113Z,21.40
2018-10-09T02:17:33.198Z,22.23
2018-10-09T02:20:02.416Z,22.67
2018-10-09T02:22:32.609Z,22.50
2018-10-09T02:25:01.688Z,23.83
2018-10-09T02:27:30.761Z,25.80
2018-10-09T02:29:59.878Z,25.33
2018-10-09T02:32:28.950Z,24.10
2018-10-09T02:34:58.098Z,24.27
2018-10-09T02:37:27.210Z,24.97
2018-10-09T02:39:56.334Z,27.10
2018-10-09T02:42:25.414Z,25.47
2018-10-09T02:44:54.522Z,26.73
2018-10-09T02:47:23.592Z,27.27
2018-10-09T02:49:52.656Z,29.17
2018-10-09T02:52:21.838Z,29.00
2018-10-09T02:54:50.966Z,28.87
2018-10-09T02:57:20.052Z,29.30
2018-10-09T02:59:49.203Z,28.27
2018-10-09T03:02:18.365Z,27.37
2018-10-09T03:04:47.491Z,27.37
2018-10-09T03:07:16.641Z,29.40
2018-10-09T03:09:45.768Z,27.77
2018-10-09T03:12:14.887Z,26.83
2018-10-09T03:14:44.064Z,26.17
2018-10-09T03:17:13.146Z,25.60
2018-10-09T03:19:42.257Z,26.90
2018-10-09T03:22:11.441Z,25.00
2018-10-09T03:24:40.577Z,26.53
2018-10-09T03:27:09.774Z,26.27
2018-10-09T03:29:38.894Z,26.10
2018-10-09T03:32:08.371Z,25.87
2018-10-09T03:34:37.465Z,24.47
2018-10-09T03:37:08.738Z,26.27
2018-10-09T03:39:37.841Z,26.77
2018-10-09T03:42:07.009Z,26.40
2018-10-09T03:44:36.053Z,27.70
2018-10-09T03:47:05.222Z,27.53
2018-10-09T03:49:34.317Z,27.37
2018-10-09T03:52:03.430Z,28.40
2018-10-09T03:54:32.569Z,29.37
2018-10-09T03:57:01.690Z,28.50
2018-10-09T03:59:30.813Z,28.03
2018-10-09T04:01:59.933Z,26.37
2018-10-09T04:04:29.054Z,25.43
2018-10-09T04:06:58.181Z,25.50
2018-10-09T04:09:27.310Z,25.47
2018-10-09T04:11:56.426Z,23.67
2018-10-09T04:14:25.583Z,24.67
2018-10-09T04:16:54.717Z,24.20
2018-10-09T04:19:24.158Z,23.33
2018-10-09T04:21:57.269Z,23.10
2018-10-09T04:24:26.278Z,23.63
2018-10-09T04:26:55.489Z,24.57
2018-10-09T04:29:24.632Z,23.53
2018-10-09T04:31:53.753Z,22.47
2018-10-09T04:34:22.777Z,23.20
2018-10-09T04:36:51.934Z,22.90
2018-10-09T04:39:20.957Z,23.73
2018-10-09T04:41:50.029Z,24.27
2018-10-09T04:44:19.157Z,23.00
2018-10-09T04:46:48.315Z,23.73
2018-10-09T04:49:17.431Z,23.77
2018-10-09T04:51:46.562Z,22.23
2018-10-09T04:54:15.658Z,22.20
2018-10-09T04:56:44.761Z,22.47
2018-10-09T04:59:13.866Z,23.07
2018-10-09T05:01:43.031Z,21.80
2018-10-09T05:04:12.145Z,22.43
2018-10-09T05:06:41.275Z,21.83
2018-10-09T05:09:11.523Z,22.00
2018-10-09T05:11:40.765Z,21.57
2018-10-09T05:14:09.945Z,22.93
2018-10-09T05:16:39.034Z,22.27
2018-10-09T05:19:08.214Z,23.90
2018-10-09T05:21:37.242Z,23.10
2018-10-09T05:24:06.342Z,22.17
2018-10-09T05:26:35.469Z,22.63
2018-10-09T05:29:04.710Z,21.33
2018-10-09T05:31:34.108Z,21.37
2018-10-09T05:34:03.205Z,22.03
2018-10-09T05:36:32.363Z,22.53
2018-10-09T05:39:01.534Z,21.53
2018-10-09T05:41:30.772Z,22.47
2018-10-09T05:43:59.819Z,22.13
2018-10-09T05:46:28.974Z,22.77
2018-10-09T05:48:58.118Z,21.93
2018-10-09T05:51:27.306Z,22.53
2018-10-09T05:53:56.413Z,21.87
2018-10-09T05:56:25.628Z,22.17
2018-10-09T05:58:54.735Z,22.40
2018-10-09T06:01:23.840Z,22.70
2018-10-09T06:03:52.973Z,24.03
2018-10-09T06:06:22.327Z,24.13
2018-10-09T06:08:51.446Z,24.20
2018-10-09T06:11:20.591Z,24.33
2018-10-09T06:13:49.775Z,25.43
2018-10-09T06:16:18.928Z,26.33
2018-10-09T06:18:47.956Z,25.37
2018-10-09T06:21:17.030Z,27.13
2018-10-09T06:23:46.149Z,25.53
2018-10-09T06:26:15.282Z,26.77
2018-10-09T06:28:44.386Z,26.57
2018-10-09T06:31:13.386Z,26.87
2018-10-09T06:33:42.543Z,26.63
2018-10-09T06:36:11.718Z,28.37
2018-10-09T06:38:40.890Z,26.77
2018-10-09T06:41:09.997Z,26.37
2018-10-09T06:43:39.076Z,25.77
2018-10-09T06:46:08.189Z,27.37
2018-10-09T06:48:37.214Z,27.00
2018-10-09T06:51:06.417Z,26.97
2018-10-09T06:53:35.601Z,27.70
2018-10-09T06:56:04.765Z,27.60
2018-10-09T06:58:33.776Z,27.80
2018-10-09T07:01:02.875Z,26.20
2018-10-09T07:03:31.940Z,27.00
2018-10-09T07:06:01.010Z,28.33
2018-10-09T07:08:30.543Z,28.80
2018-10-09T07:10:59.609Z,27.27
2018-10-09T07:13:29.194Z,27.53
2018-10-09T07:15:58.330Z,27.67
2018-10-09T07:18:27.425Z,28.57
2018-10-09T07:20:56.574Z,29.70
2018-10-09T07:23:25.735Z,30.00
2018-10-09T07:25:54.856Z,30.20
2018-10-09T07:28:23.983Z,30.87
2018-10-09T07:30:53.125Z,31.20
2018-10-09T07:33:22.261Z,31.10
2018-10-09T07:35:51.418Z,31.43
2018-10-09T07:38:20.583Z,31.20
2018-10-09T07:40:49.722Z,31.07
2018-10-09T07:43:18.802Z,30.37
2018-10-09T07:45:47.887Z,33.73
2018-10-09T07:48:17.015Z,31.87
2018-10-09T07:50:46.110Z,32.97
2018-10-09T07:53:15.250Z,33.60
2018-10-09T07:55:44.298Z,33.27
2018-10-09T07:58:13.322Z,33.63
2018-10-09T08:00:42.374Z,34.60
2018-10-09T08:03:11.491Z,36.17
2018-10-09T08:05:40.663Z,36.13
2018-10-09T08:08:09.781Z,36.33
2018-10-09T08:10:38.885Z,37.33
2018-10-09T08:13:08.042Z,37.70
2018-10-09T08:15:37.074Z,37.80
2018-10-09T08:18:06.534Z,38.87
2018-10-09T08:20:35.622Z,37.83
2018-10-09T08:23:04.626Z,37.87
2018-10-09T08:25:33.761Z,40.83
2018-10-09T08:28:02.942Z,39.20
2018-10-09T08:30:32.003Z,39.30
2018-10-09T08:33:01.099Z,38.10
2018-10-09T08:35:30.194Z,37.87
2018-10-09T08:37:59.283Z,39.30
2018-10-09T08:40:28.435Z,39.00
2018-10-09T08:42:57.406Z,38.90
2018-10-09T08:45:26.469Z,39.47
2018-10-09T08:47:55.537Z,37.03
2018-10-09T08:50:24.677Z,37.03
2018-10-09T08:52:53.682Z,38.97
2018-10-09T08:55:22.946Z,38.20
2018-10-09T08:57:52.086Z,37.70
2018-10-09T09:00:21.138Z,37.53
2018-10-09T09:02:50.204Z,35.93
2018-10-09T09:05:19.313Z,34.93
2018-10-09T09:07:48.362Z,34.20
2018-10-09T09:10:17.537Z,33.20
2018-10-09T09:12:46.651Z,31.17
2018-10-09T09:15:16.228Z,33.77
2018-10-09T09:17:45.270Z,35.67
2018-10-09T09:20:14.349Z,33.57
2018-10-09T09:22:43.518Z,35.73
2018-10-09T09:25:12.647Z,34.63
2018-10-09T09:27:41.735Z,34.43
2018-10-09T09:30:10.827Z,32.20
2018-10-09T09:32:40.158Z,34.27
2018-10-09T09:35:09.265Z,34.40
2018-10-09T09:37:38.366Z,33.63
2018-10-09T09:40:08.972Z,34.07
2018-10-09T09:42:38.122Z,33.73
2018-10-09T09:45:07.345Z,32.97
2018-10-09T09:47:36.435Z,33.00
2018-10-09T09:50:06.264Z,31.77
2018-10-09T09:52:35.391Z,33.40
2018-10-09T09:55:04.635Z,32.10
2018-10-09T09:57:33.798Z,33.37
2018-10-09T10:00:02.923Z,33.03
2018-10-09T10:02:32.121Z,31.63
2018-10-09T10:05:01.319Z,31.47
2018-10-09T10:07:30.347Z,30.77
2018-10-09T10:09:59.418Z,29.80
2018-10-09T10:12:28.534Z,29.37
2018-10-09T10:14:57.747Z,27.97
2018-10-09T10:17:26.847Z,28.40
2018-10-09T10:19:55.902Z,27.80
2018-10-09T10:22:24.991Z,27.87
2018-10-09T10:24:54.114Z,27.23
2018-10-09T10:27:23.267Z,27.00
2018-10-09T10:29:52.386Z,26.03
2018-10-09T10:32:21.537Z,25.97
2018-10-09T10:34:50.714Z,25.63
2018-10-09T10:37:19.802Z,25.33
2018-10-09T10:39:48.917Z,25.63
2018-10-09T10:42:18.191Z,26.00
2018-10-09T10:44:47.487Z,27.00
2018-10-09T10:47:16.650Z,24.77
2018-10-09T10:49:45.774Z,24.77
2018-10-09T10:52:14.974Z,23.80
2018-10-09T10:54:44.276Z,25.07
2018-10-09T10:57:13.390Z,26.03
2018-10-09T10:59:42.537Z,25.63
2018-10-09T11:02:11.762Z,25.13
2018-10-09T11:04:40.873Z,25.40
2018-10-09T11:07:10.022Z,23.77
2018-10-09T11:09:39.173Z,24.03
2018-10-09T11:12:08.313Z,23.20
2018-10-09T11:14:37.501Z,23.70
2018-10-09T11:17:06.630Z,25.10
2018-10-09T11:19:35.729Z,29.37
2018-10-09T11:22:04.881Z,26.77
2018-10-09T11:24:34.018Z,26.47
2018-10-09T11:27:03.162Z,25.37
2018-10-09T11:29:32.336Z,25.03
2018-10-09T11:32:01.537Z,24.13
2018-10-09T11:34:30.649Z,24.40
2018-10-09T11:36:59.774Z,23.30
2018-10-09T11:39:28.906Z,23.23
2018-10-09T11:41:58.082Z,22.60
2018-10-09T11:44:27.218Z,23.20
2018-10-09T11:46:56.293Z,22.13
2018-10-09T11:49:25.439Z,20.87
2018-10-09T11:51:54.568Z,21.93
2018-10-09T11:54:23.695Z,22.53
2018-10-09T11:56:52.827Z,21.43
2018-10-09T11:59:21.952Z,19.30
2018-10-09T12:01:51.188Z,22.10
2018-10-09T12:04:20.262Z,20.40
2018-10-09T12:06:49.641Z,21.27
2018-10-09T12:09:18.772Z,21.77
2018-10-09T12:11:47.921Z,19.63
2018-10-09T12:14:17.092Z,23.40
2018-10-09T12:16:46.342Z,22.43
2018-10-09T12:19:15.471Z,20.70
2018-10-09T12:21:44.588Z,19.67
2018-10-09T12:24:13.713Z,18.47
2018-10-09T12:26:42.921Z,19.00
2018-10-09T12:29:12.048Z,20.23
2018-10-09T12:31:41.205Z,18.00
2018-10-09T12:34:10.303Z,19.73
2018-10-09T12:36:39.434Z,20.20
2018-10-09T12:39:11.380Z,19.63
2018-10-09T12:41:40.591Z,19.67
2018-10-09T12:44:09.757Z,18.40
2018-10-09T12:46:39.529Z,18.37
2018-10-09T12:49:09.130Z,17.30
2018-10-09T12:51:38.368Z,17.33
2018-10-09T12:54:07.518Z,16.87
2018-10-09T12:56:36.642Z,16.73
2018-10-09T12:59:06.215Z,17.93
2018-10-09T13:01:35.325Z,15.90
2018-10-09T13:04:04.509Z,16.07
2018-10-09T13:06:33.710Z,15.20
2018-10-09T13:09:02.950Z,16.13
2018-10-09T13:11:32.138Z,15.40
2018-10-09T13:14:01.324Z,15.30
2018-10-09T13:16:30.502Z,15.77
2018-10-09T13:19:00.012Z,15.37
2018-10-09T13:21:29.306Z,15.70
2018-10-09T13:23:58.353Z,15.60
2018-10-09T13:26:27.512Z,16.60
2018-10-09T13:28:56.723Z,15.77
2018-10-09T13:31:25.837Z,16.13
2018-10-09T13:33:55.026Z,14.60
2018-10-09T13:36:24.150Z,15.70
2018-10-09T13:38:53.310Z,14.57
2018-10-09T13:41:22.457Z,15.03
2018-10-09T13:43:51.709Z,13.67
2018-10-09T13:46:20.745Z,13.90
2018-10-09T13:48:49.900Z,15.17
2018-10-09T13:51:19.058Z,14.37
2018-10-09T13:53:48.287Z,13.73
2018-10-09T13:56:17.446Z,13.70
2018-10-09T13:58:46.581Z,13.37
2018-10-09T14:01:15.697Z,14.20
2018-10-09T14:03:44.887Z,12.90
2018-10-09T14:06:14.101Z,13.87
2018-10-09T14:08:43.262Z,12.70
2018-10-09T14:11:12.389Z,12.03
2018-10-09T14:13:41.550Z,12.40
2018-10-09T14:16:10.786Z,10.77
2018-10-09T14:18:40.025Z,11.20
2018-10-09T14:21:09.236Z,10.73
2018-10-09T14:23:38.609Z,9.87
2018-10-09T14:26:07.991Z,9.40
2018-10-09T14:28:37.216Z,9.40
2018-10-09T14:31:06.406Z,9.43
2018-10-09T14:33:35.898Z,8.53
2018-10-09T14:36:05.086Z,9.40
2018-10-09T14:38:34.767Z,9.87
2018-10-09T14:41:03.947Z,9.67
2018-10-09T14:43:43.364Z,8.67
2018-10-09T14:46:12.963Z,8.80
2018-10-09T14:48:42.359Z,9.27
2018-10-09T14:51:11.607Z,8.57
2018-10-09T14:53:40.809Z,8.33
2018-10-09T14:56:09.975Z,8.73
2018-10-09T14:58:39.167Z,8.33
2018-10-09T15:01:08.486Z,8.00
2018-10-09T15:03:37.617Z,8.07
2018-10-09T15:06:06.832Z,7.53
2018-10-09T15:08:36.378Z,8.03
2018-10-09T15:11:05.472Z,7.83
2018-10-09T15:13:34.734Z,7.70
2018-10-09T15:16:03.937Z,7.73
2018-10-09T15:18:33.062Z,7.57
2018-10-09T15:21:02.166Z,7.70
2018-10-09T15:23:31.336Z,7.27
2018-10-09T15:26:00.486Z,7.77
2018-10-09T15:28:29.697Z,7.73
2018-10-09T15:30:58.925Z,7.57
2018-10-09T15:33:28.190Z,7.53
2018-10-09T15:35:57.331Z,8.03
2018-10-09T15:38:26.498Z,8.23
2018-10-09T15:40:55.652Z,7.93
2018-10-09T15:43:24.738Z,7.77
2018-10-09T15:45:53.928Z,7.53
2018-10-09T15:48:23.091Z,7.80
2018-10-09T15:50:52.209Z,7.57
2018-10-09T15:53:21.360Z,7.20
2018-10-09T15:55:50.615Z,7.67
2018-10-09T15:58:19.798Z,7.23
2018-10-09T16:00:49.031Z,7.50
2018-10-09T16:03:18.142Z,7.00
2018-10-09T16:05:47.343Z,7.23
2018-10-09T16:08:16.565Z,7.20
2018-10-09T16:10:45.642Z,7.33
2018-10-09T16:13:14.770Z,6.80
2018-10-09T16:15:43.940Z,7.00
2018-10-09T16:18:13.059Z,6.40
2018-10-09T16:20:42.153Z,7.37
2018-10-09T16:23:11.277Z,7.15
2018-10-09T16:25:40.402Z,6.90
2018-10-09T16:28:09.705Z,7.03
2018-10-09T16:30:38.843Z,7.30
2018-10-09T16:33:08.339Z,7.23
2018-10-09T16:35:37.474Z,8.13
2018-10-09T16:38:06.726Z,7.60
2018-10-09T16:40:35.866Z,8.40
2018-10-09T16:43:04.967Z,7.43
2018-10-09T16:45:34.100Z,7.33
2018-10-09T16:48:03.306Z,7.60
2018-10-09T16:50:32.429Z,7.40
2018-10-09T16:53:01.574Z,7.03
2018-10-09T16:55:30.642Z,7.23
2018-10-09T16:57:59.786Z,8.00
2018-10-09T17:00:28.965Z,8.27
2018-10-09T17:02:58.204Z,7.00
2018-10-09T17:05:27.311Z,7.70
2018-10-09T17:07:56.434Z,8.03
2018-10-09T17:10:25.511Z,7.83
2018-10-09T17:12:54.669Z,7.90
2018-10-09T17:15:23.812Z,7.77
2018-10-09T17:17:52.970Z,8.37
2018-10-09T17:20:22.090Z,8.30
2018-10-09T17:22:51.406Z,7.97
2018-10-09T17:25:20.522Z,7.63
2018-10-09T17:27:49.737Z,8.70
2018-10-09T17:30:18.798Z,9.30
2018-10-09T17:32:47.963Z,9.13
2018-10-09T17:38:18.037Z,9.27
2018-10-09T17:40:47.086Z,9.50
2018-10-09T17:43:16.257Z,9.50
2018-10-09T17:45:45.377Z,9.23
2018-10-09T17:48:14.573Z,9.37
2018-10-09T17:50:43.736Z,9.47
2018-10-09T17:53:12.900Z,9.80
2018-10-09T17:55:42.075Z,10.23
2018-10-09T17:58:11.210Z,10.07
2018-10-09T18:00:40.376Z,9.73
2018-10-09T18:03:09.521Z,10.47
2018-10-09T18:05:39.128Z,10.90
2018-10-09T18:08:08.690Z,10.77
2018-10-09T18:10:37.942Z,10.73
2018-10-09T18:13:07.230Z,11.00
2018-10-09T18:15:36.333Z,11.60
2018-10-09T18:18:05.924Z,11.37
2018-10-09T18:20:35.140Z,12.00
2018-10-09T18:23:05.423Z,11.10
2018-10-09T18:25:35.560Z,11.63
2018-10-09T18:28:04.690Z,11.73
2018-10-09T18:30:33.798Z,12.13
2018-10-09T18:33:03.179Z,11.87
2018-10-09T18:35:32.027Z,11.80
2018-10-09T18:38:01.235Z,12.27
2018-10-09T18:40:30.321Z,12.17
2018-10-09T18:43:01.386Z,12.67
2018-10-09T18:45:30.654Z,12.37
2018-10-09T18:47:59.793Z,12.70
2018-10-09T18:50:28.941Z,12.70
2018-10-09T18:53:09.551Z,12.83
2018-10-09T18:55:38.674Z,13.27
2018-10-09T18:58:07.787Z,13.37
2018-10-09T19:00:36.923Z,15.33
2018-10-09T19:03:06.041Z,15.77
2018-10-09T19:05:35.170Z,14.90
2018-10-09T19:10:59.545Z,13.60
2018-10-09T19:13:28.727Z,14.23
2018-10-09T19:15:58.662Z,13.97
2018-10-09T19:18:27.872Z,14.93
2018-10-09T19:20:57.399Z,13.90
2018-10-09T19:23:27.418Z,14.07
2018-10-09T19:25:56.637Z,13.97
2018-10-09T19:28:25.702Z,13.63
2018-10-09T19:30:54.987Z,14.87
2018-10-09T19:33:24.107Z,15.03
2018-10-09T19:35:53.217Z,13.67
2018-10-09T19:38:22.286Z,14.07
2018-10-09T19:40:51.362Z,13.87
2018-10-09T19:43:20.494Z,14.23
2018-10-09T19:45:49.702Z,14.03
2018-10-09T19:48:18.823Z,14.00
2018-10-09T19:50:48.002Z,13.63
2018-10-09T19:53:17.061Z,13.77
2018-10-09T19:55:46.115Z,14.73
2018-10-09T19:58:15.262Z,15.40
2018-10-09T20:00:44.716Z,15.33
2018-10-09T20:03:13.875Z,14.90
2018-10-09T20:05:43.072Z,14.93
2018-10-09T20:08:12.227Z,14.83
2018-10-09T20:10:41.447Z,15.23
2018-10-09T20:13:10.541Z,16.23
2018-10-09T20:15:39.646Z,16.00
2018-10-09T20:18:08.774Z,15.77
2018-10-09T20:20:37.878Z,16.13
2018-10-09T20:23:07.303Z,15.77
2018-10-09T20:25:36.354Z,15.90
2018-10-09T20:28:05.674Z,15.23
2018-10-09T20:30:34.974Z,15.73
2018-10-09T20:33:04.832Z,15.53
2018-10-09T20:35:33.983Z,15.47
2018-10-09T20:38:03.190Z,15.33
2018-10-09T20:40:32.334Z,15.83
2018-10-09T20:43:01.439Z,14.80
2018-10-09T20:48:40.806Z,15.07
2018-10-09T20:51:10.122Z,15.33
2018-10-09T20:53:39.262Z,14.83
2018-10-09T20:56:08.506Z,15.53
2018-10-09T20:58:37.612Z,14.70
2018-10-09T21:01:06.970Z,14.63
2018-10-09T21:03:36.077Z,15.03
2018-10-09T21:06:05.150Z,14.80
2018-10-09T21:08:35.036Z,14.60
2018-10-09T21:11:04.468Z,14.47
2018-10-09T21:13:33.694Z,14.70
2018-10-09T21:16:02.778Z,14.50
2018-10-09T21:18:31.925Z,13.97
2018-10-09T21:21:01.642Z,14.90
2018-10-09T21:23:31.202Z,14.40
2018-10-09T21:26:00.287Z,15.20
2018-10-09T21:28:29.407Z,14.73
2018-10-09T21:30:58.545Z,15.13
2018-10-09T21:33:27.633Z,15.30
2018-10-09T21:35:56.727Z,15.60
2018-10-09T21:38:25.825Z,15.30
2018-10-09T21:40:54.955Z,16.17
2018-10-09T21:43:24.054Z,15.20
2018-10-09T21:45:53.049Z,15.23
2018-10-09T21:48:22.294Z,16.00
2018-10-09T21:50:51.413Z,15.37
2018-10-09T21:53:20.463Z,15.67
2018-10-09T21:55:49.481Z,15.07
2018-10-09T21:58:18.695Z,15.20
2018-10-09T22:00:52.874Z,16.30
2018-10-09T22:03:21.977Z,15.70
2018-10-09T22:05:51.066Z,16.13
2018-10-09T22:08:20.216Z,15.17
2018-10-09T22:10:49.255Z,15.40
2018-10-09T22:13:18.317Z,16.23
2018-10-09T22:15:47.503Z,15.17
2018-10-09T22:18:16.678Z,14.73
2018-10-09T22:20:45.900Z,14.90
2018-10-09T22:23:15.025Z,15.70
2018-10-09T22:25:44.018Z,15.40
2018-10-09T22:28:13.092Z,15.93
2018-10-09T22:30:42.230Z,16.67
2018-10-09T22:33:11.273Z,16.77
2018-10-09T22:35:40.393Z,16.47
2018-10-09T22:38:09.546Z,15.97
2018-10-09T22:40:38.763Z,16.97
2018-10-09T22:43:07.863Z,17.10
2018-10-09T22:45:36.970Z,16.47
2018-10-09T22:48:06.074Z,16.53
2018-10-09T22:50:35.258Z,17.13
2018-10-09T22:53:04.377Z,16.93
2018-10-09T22:55:33.544Z,16.37
2018-10-09T22:58:02.662Z,15.77
2018-10-09T23:00:31.753Z,17.20
2018-10-09T23:03:00.888Z,16.43
2018-10-09T23:05:30.005Z,16.70
2018-10-09T23:07:59.134Z,16.27
2018-10-09T23:10:28.324Z,16.60
2018-10-09T23:12:57.438Z,17.20
2018-10-09T23:15:26.562Z,17.40
2018-10-09T23:17:55.650Z,16.60
2018-10-09T23:20:24.819Z,16.13
2018-10-09T23:22:53.961Z,17.17
2018-10-09T23:25:23.093Z,17.40
2018-10-09T23:27:52.154Z,18.07
2018-10-09T23:30:21.240Z,17.50
2018-10-09T23:32:50.318Z,18.00
2018-10-09T23:35:19.442Z,17.90
2018-10-09T23:37:48.550Z,17.13
2018-10-09T23:40:17.666Z,17.27
2018-10-09T23:42:46.754Z,17.77
2018-10-09T23:45:15.806Z,17.57
2018-10-09T23:47:44.902Z,18.00
2018-10-09T23:50:13.955Z,18.27
2018-10-09T23:52:43.090Z,18.80
2018-10-09T23:55:12.210Z,25.60
2018-10-09T23:57:41.322Z,22.10
